createdAt,value
2019-03-08T00:01:59.953Z,9.20
2019-03-08T00:04:28.948Z,9.30
2019-03-08T00:06:57.804Z,9.30
2019-03-08T00:09:26.760Z,9.40
2019-03-08T00:11:55.824Z,9.40
2019-03-08T00:14:24.727Z,9.50
2019-03-08T00:16:53.684Z,9.50
2019-03-08T00:19:22.788Z,9.50
2019-03-08T00:21:51.804Z,9.50
2019-03-08T00:24:20.855Z,9.50
2019-03-08T00:26:49.905Z,9.50
2019-03-08T00:29:19.484Z,9.50
2019-03-08T00:31:48.412Z,9.50
2019-03-08T00:34:17.308Z,9.50
2019-03-08T00:36:46.290Z,9.50
2019-03-08T00:39:15.452Z,9.50
2019-03-08T00:41:44.766Z,9.50
2019-03-08T00:44:14.249Z,9.60
2019-03-08T00:46:43.170Z,9.70
2019-03-08T00:49:12.153Z,9.70
2019-03-08T00:51:41.176Z,9.60
2019-03-08T00:54:10.085Z,9.40
2019-03-08T00:56:39.735Z,9.40
2019-03-08T00:59:09.166Z,9.30
2019-03-08T01:01:38.216Z,9.30
2019-03-08T01:04:07.403Z,9.30
2019-03-08T01:06:36.364Z,9.20
2019-03-08T01:09:06.848Z,9.10
2019-03-08T01:11:36.469Z,9.10
2019-03-08T01:14:05.452Z,9.10
2019-03-08T01:16:34.544Z,9.10
2019-03-08T01:19:03.700Z,9.10
2019-03-08T01:21:32.591Z,9.10
2019-03-08T01:24:01.598Z,9.10
2019-03-08T01:26:30.748Z,9.10
2019-03-08T01:28:59.756Z,9.10
2019-03-08T01:31:28.748Z,9.10
2019-03-08T01:33:57.745Z,9.00
2019-03-08T01:36:26.720Z,9.10
2019-03-08T01:38:55.644Z,9.00
2019-03-08T01:41:24.534Z,9.00
2019-03-08T01:43:53.437Z,9.00
2019-03-08T01:46:22.208Z,9.10
2019-03-08T01:48:51.214Z,9.00
2019-03-08T01:51:20.209Z,9.00
2019-03-08T01:53:49.120Z,9.00
2019-03-08T01:56:17.923Z,9.00
2019-03-08T01:58:46.901Z,9.00
2019-03-08T02:01:15.911Z,9.00
2019-03-08T02:03:44.779Z,9.00
2019-03-08T02:06:13.832Z,9.00
2019-03-08T02:08:43.411Z,9.00
2019-03-08T02:11:12.337Z,9.00
2019-03-08T02:13:41.208Z,9.00
2019-03-08T02:16:10.092Z,8.90
2019-03-08T02:18:39.086Z,8.90
2019-03-08T02:21:08.048Z,8.90
2019-03-08T02:23:37.484Z,8.90
2019-03-08T02:26:06.472Z,9.00
2019-03-08T02:28:35.404Z,9.00
2019-03-08T02:31:04.556Z,9.00
2019-03-08T02:33:33.517Z,9.00
2019-03-08T02:36:02.484Z,9.00
2019-03-08T02:38:31.497Z,9.00
2019-03-08T02:41:00.309Z,8.90
2019-03-08T02:43:29.656Z,9.00
2019-03-08T02:45:58.806Z,8.90
2019-03-08T02:48:27.601Z,9.00
2019-03-08T02:50:56.544Z,9.10
2019-03-08T02:53:25.521Z,9.00
2019-03-08T02:55:54.402Z,9.10
2019-03-08T02:58:23.320Z,9.10
2019-03-08T03:00:52.227Z,9.10
2019-03-08T03:03:21.036Z,9.00
2019-03-08T03:05:50.492Z,9.10
2019-03-08T03:08:19.740Z,9.00
2019-03-08T03:10:48.624Z,9.00
2019-03-08T03:13:17.584Z,9.00
2019-03-08T03:15:46.480Z,9.00
2019-03-08T03:18:15.396Z,9.00
2019-03-08T03:20:44.296Z,9.00
2019-03-08T03:23:13.328Z,9.00
2019-03-08T03:25:42.355Z,9.00
2019-03-08T03:28:11.228Z,9.00
2019-03-08T03:30:40.194Z,8.90
2019-03-08T03:33:09.112Z,9.00
2019-03-08T03:35:38.094Z,8.90
2019-03-08T03:38:07.024Z,8.90
2019-03-08T03:40:35.864Z,8.90
2019-03-08T03:43:04.989Z,8.80
2019-03-08T03:45:33.996Z,8.70
2019-03-08T03:48:03.312Z,8.70
2019-03-08T03:50:32.200Z,8.70
2019-03-08T03:53:01.024Z,8.70
2019-03-08T03:55:30.513Z,8.70
2019-03-08T03:57:59.409Z,8.70
2019-03-08T04:00:28.388Z,8.70
2019-03-08T04:02:57.458Z,8.60
2019-03-08T04:05:26.258Z,8.60
2019-03-08T04:07:55.357Z,8.60
2019-03-08T04:10:24.328Z,8.60
2019-03-08T04:12:53.256Z,8.60
2019-03-08T04:15:22.784Z,8.60
2019-03-08T04:17:51.897Z,8.60
2019-03-08T04:20:21.200Z,8.60
2019-03-08T04:22:50.409Z,8.60
2019-03-08T04:25:19.360Z,8.50
2019-03-08T04:27:48.343Z,8.50
2019-03-08T04:30:17.342Z,8.40
2019-03-08T04:32:46.516Z,8.40
2019-03-08T04:35:15.472Z,8.40
2019-03-08T04:37:44.852Z,8.40
2019-03-08T04:40:14.184Z,8.30
2019-03-08T04:42:43.158Z,8.30
2019-03-08T04:45:13.075Z,8.30
2019-03-08T04:47:42.132Z,8.30
2019-03-08T04:50:12.135Z,8.30
2019-03-08T04:52:41.064Z,8.30
2019-03-08T04:55:12.055Z,8.30
2019-03-08T04:57:41.112Z,8.30
2019-03-08T05:00:11.253Z,8.20
2019-03-08T05:02:40.589Z,8.30
2019-03-08T05:05:09.563Z,8.30
2019-03-08T05:07:38.549Z,8.20
2019-03-08T05:10:09.521Z,8.20
2019-03-08T05:12:38.747Z,8.20
2019-03-08T05:15:07.767Z,8.30
2019-03-08T05:17:36.732Z,8.30
2019-03-08T05:20:06.160Z,8.30
2019-03-08T05:22:35.058Z,8.30
2019-03-08T05:25:04.524Z,8.30
2019-03-08T05:27:33.587Z,8.30
2019-03-08T05:30:02.547Z,8.30
2019-03-08T05:32:31.734Z,8.30
2019-03-08T05:35:00.712Z,8.30
2019-03-08T05:37:29.736Z,8.40
2019-03-08T05:39:58.689Z,8.30
2019-03-08T05:42:28.113Z,8.40
2019-03-08T05:44:56.967Z,8.40
2019-03-08T05:47:26.006Z,8.30
2019-03-08T05:49:54.975Z,8.40
2019-03-08T05:52:24.111Z,8.30
2019-03-08T05:54:53.060Z,8.40
2019-03-08T05:57:22.504Z,8.30
2019-03-08T05:59:51.688Z,8.30
2019-03-08T06:02:20.583Z,8.30
2019-03-08T06:04:49.475Z,8.40
2019-03-08T06:07:18.373Z,8.40
2019-03-08T06:09:47.276Z,8.40
2019-03-08T06:12:16.501Z,8.40
2019-03-08T06:14:45.420Z,8.40
2019-03-08T06:17:14.308Z,8.40
2019-03-08T06:19:43.224Z,8.40
2019-03-08T06:22:12.128Z,8.40
2019-03-08T06:24:41.017Z,8.40
2019-03-08T06:27:10.464Z,8.40
2019-03-08T06:29:39.296Z,8.40
2019-03-08T06:32:08.192Z,8.40
2019-03-08T06:34:37.016Z,8.40
2019-03-08T06:37:05.840Z,8.40
2019-03-08T06:39:34.628Z,8.40
2019-03-08T06:42:03.673Z,8.50
2019-03-08T06:44:32.596Z,8.50
2019-03-08T06:47:01.453Z,8.50
2019-03-08T06:49:30.457Z,8.50
2019-03-08T06:52:00.906Z,8.60
2019-03-08T06:54:30.372Z,8.60
2019-03-08T06:56:59.588Z,8.60
2019-03-08T06:59:53.644Z,8.60
2019-03-08T07:02:23.119Z,8.60
2019-03-08T07:04:52.108Z,8.60
2019-03-08T07:07:20.988Z,8.60
2019-03-08T07:09:49.968Z,8.70
2019-03-08T07:12:18.860Z,8.60
2019-03-08T07:14:48.133Z,8.70
2019-03-08T07:17:17.041Z,8.70
2019-03-08T07:19:56.264Z,8.70
2019-03-08T07:23:02.348Z,8.70
2019-03-08T07:25:52.544Z,8.70
2019-03-08T07:28:35.740Z,8.80
2019-03-08T07:31:23.692Z,8.90
2019-03-08T07:33:59.445Z,8.90
2019-03-08T07:36:47.327Z,9.00
2019-03-08T07:39:30.255Z,9.10
2019-03-08T07:42:15.989Z,9.10
2019-03-08T07:45:12.050Z,9.10
2019-03-08T07:48:06.254Z,9.10
2019-03-08T07:50:50.048Z,9.20
2019-03-08T07:53:34.804Z,9.20
2019-03-08T07:56:10.340Z,9.20
2019-03-08T07:58:58.533Z,9.20
2019-03-08T08:01:45.445Z,9.30
2019-03-08T08:04:38.046Z,9.20
2019-03-08T08:07:29.198Z,9.20
2019-03-08T08:10:06.264Z,9.20
2019-03-08T08:13:03.508Z,9.20
2019-03-08T08:16:09.546Z,9.20
2019-03-08T08:18:52.295Z,9.30
2019-03-08T08:21:33.554Z,9.30
2019-03-08T08:24:17.215Z,9.30
2019-03-08T08:27:03.744Z,9.40
2019-03-08T08:29:46.120Z,9.40
2019-03-08T08:32:28.824Z,9.40
2019-03-08T08:35:07.348Z,9.50
2019-03-08T08:37:46.771Z,9.50
2019-03-08T08:40:37.864Z,9.60
2019-03-08T08:43:18.491Z,9.60
2019-03-08T08:46:00.970Z,9.70
2019-03-08T08:48:48.160Z,9.70
2019-03-08T08:51:22.813Z,9.70
2019-03-08T08:54:12.512Z,9.70
2019-03-08T08:56:56.223Z,9.70
2019-03-08T08:59:50.137Z,9.70
2019-03-08T09:02:37.107Z,9.60
2019-03-08T09:05:26.972Z,9.50
2019-03-08T09:08:13.580Z,9.60
2019-03-08T09:11:00.129Z,9.60
2019-03-08T09:13:34.628Z,9.60
2019-03-08T09:16:08.155Z,9.60
2019-03-08T09:19:05.436Z,9.60
2019-03-08T09:21:44.353Z,9.60
2019-03-08T09:24:31.152Z,9.70
2019-03-08T09:27:25.472Z,9.70
2019-03-08T09:30:07.488Z,9.80
2019-03-08T09:32:48.880Z,9.70
2019-03-08T09:35:23.448Z,9.70
2019-03-08T09:38:17.590Z,9.70
2019-03-08T09:41:05.598Z,9.70
2019-03-08T09:44:12.039Z,9.70
2019-03-08T09:46:49.232Z,9.70
2019-03-08T09:49:23.805Z,9.70
2019-03-08T09:52:14.214Z,9.70
2019-03-08T09:55:00.837Z,9.70
2019-03-08T09:57:39.932Z,9.70
2019-03-08T10:00:29.884Z,9.70
2019-03-08T10:03:33.241Z,9.80
2019-03-08T10:06:10.580Z,9.70
2019-03-08T10:08:48.076Z,9.60
2019-03-08T10:11:48.360Z,9.60
2019-03-08T10:14:28.071Z,9.50
2019-03-08T10:17:25.363Z,9.50
2019-03-08T10:20:12.779Z,9.50
2019-03-08T10:23:03.820Z,9.50
2019-03-08T10:25:43.648Z,9.40
2019-03-08T10:28:20.920Z,9.40
2019-03-08T10:30:58.842Z,9.40
2019-03-08T10:33:57.061Z,9.40
2019-03-08T10:36:57.317Z,9.40
2019-03-08T10:39:44.828Z,9.40
2019-03-08T10:42:35.012Z,9.30
2019-03-08T10:45:17.617Z,9.30
2019-03-08T10:48:00.195Z,9.30
2019-03-08T10:50:40.621Z,9.30
2019-03-08T10:53:44.168Z,9.20
2019-03-08T10:56:24.937Z,9.30
2019-03-08T10:59:11.084Z,9.30
2019-03-08T11:02:02.697Z,9.30
2019-03-08T11:04:42.612Z,9.30
2019-03-08T11:07:29.556Z,9.30
2019-03-08T11:10:16.425Z,9.40
2019-03-08T11:12:53.601Z,9.40
2019-03-08T11:15:41.659Z,9.40
2019-03-08T11:18:29.624Z,9.50
2019-03-08T11:21:16.388Z,9.50
2019-03-08T11:23:56.552Z,9.50
2019-03-08T11:26:41.405Z,9.60
2019-03-08T11:29:41.808Z,9.60
2019-03-08T11:32:35.860Z,9.60
2019-03-08T11:35:18.964Z,9.50
2019-03-08T11:38:06.931Z,9.50
2019-03-08T11:40:58.007Z,9.50
2019-03-08T11:43:56.410Z,9.50
2019-03-08T11:46:41.522Z,9.30
2019-03-08T11:49:21.896Z,9.50
2019-03-08T11:52:09.872Z,9.50
2019-03-08T11:55:10.096Z,9.60
2019-03-08T11:57:53.202Z,9.60
2019-03-08T12:00:40.062Z,9.60
2019-03-08T12:03:28.160Z,9.60
2019-03-08T12:06:06.249Z,9.80
2019-03-08T12:09:00.663Z,10.00
2019-03-08T12:11:49.299Z,10.10
2019-03-08T12:14:35.957Z,10.20
2019-03-08T12:17:29.599Z,10.40
2019-03-08T12:20:10.342Z,10.40
2019-03-08T12:23:01.348Z,10.50
2019-03-08T12:25:47.916Z,10.60
2019-03-08T12:28:51.740Z,10.60
2019-03-08T12:31:38.373Z,10.70
2019-03-08T12:34:29.987Z,10.80
2019-03-08T12:37:10.928Z,10.80
2019-03-08T12:39:50.520Z,10.90
2019-03-08T12:42:47.547Z,10.90
2019-03-08T12:45:40.496Z,10.90
2019-03-08T12:48:27.268Z,10.80
2019-03-08T12:51:03.859Z,10.80
2019-03-08T12:53:44.926Z,10.80
2019-03-08T12:56:24.872Z,10.80
2019-03-08T12:59:10.753Z,10.80
2019-03-08T13:02:04.766Z,10.80
2019-03-08T13:04:41.840Z,10.80
2019-03-08T13:07:28.558Z,10.90
2019-03-08T13:10:08.516Z,10.90
2019-03-08T13:12:37.479Z,11.00
2019-03-08T13:15:07.152Z,11.00
2019-03-08T13:17:36.069Z,11.00
2019-03-08T13:20:06.088Z,11.10
2019-03-08T13:22:35.171Z,11.10
2019-03-08T13:25:04.320Z,11.10
2019-03-08T13:27:33.292Z,11.10
2019-03-08T13:30:02.277Z,11.20
2019-03-08T13:32:31.336Z,11.20
2019-03-08T13:35:00.442Z,11.30
2019-03-08T13:37:29.412Z,11.30
2019-03-08T13:39:58.404Z,11.20
2019-03-08T13:42:27.656Z,11.20
2019-03-08T13:44:56.645Z,11.30
2019-03-08T13:47:25.635Z,11.10
2019-03-08T13:49:54.736Z,11.10
2019-03-08T13:52:23.820Z,11.00
2019-03-08T13:54:52.728Z,11.00
2019-03-08T13:57:21.957Z,11.10
2019-03-08T13:59:50.804Z,11.20
2019-03-08T14:02:20.168Z,11.70
2019-03-08T14:04:49.141Z,12.40
2019-03-08T14:07:18.041Z,13.50
2019-03-08T14:09:46.941Z,14.40
2019-03-08T14:12:15.956Z,15.20
2019-03-08T14:14:44.902Z,16.00
2019-03-08T14:17:13.942Z,16.80
2019-03-08T14:19:42.917Z,17.10
2019-03-08T14:22:11.898Z,16.90
2019-03-08T14:24:40.900Z,16.30
2019-03-08T14:27:10.213Z,16.00
2019-03-08T14:29:40.910Z,15.60
2019-03-08T14:32:13.972Z,15.50
2019-03-08T14:34:42.952Z,15.40
2019-03-08T14:37:12.033Z,15.40
2019-03-08T14:39:44.309Z,15.70
2019-03-08T14:42:17.457Z,15.80
2019-03-08T14:44:56.852Z,15.60
2019-03-08T14:48:05.980Z,15.30
2019-03-08T14:50:35.582Z,15.20
2019-03-08T14:53:05.308Z,15.30
2019-03-08T14:55:34.600Z,15.30
2019-03-08T14:58:03.738Z,15.00
2019-03-08T15:00:32.687Z,15.10
2019-03-08T15:03:01.623Z,15.40
2019-03-08T15:05:30.524Z,15.80
2019-03-08T15:07:59.828Z,15.90
2019-03-08T15:10:39.026Z,15.70
2019-03-08T15:13:00.989Z,15.70
2019-03-08T15:15:30.048Z,15.60
2019-03-08T15:17:59.048Z,15.20
2019-03-08T15:20:28.032Z,14.80
2019-03-08T15:22:57.006Z,14.60
2019-03-08T15:25:25.937Z,14.50
2019-03-08T15:27:54.879Z,14.40
2019-03-08T15:30:23.889Z,14.50
2019-03-08T15:32:52.893Z,14.40
2019-03-08T15:35:21.918Z,14.30
2019-03-08T15:37:50.884Z,14.30
2019-03-08T15:40:23.373Z,14.30
2019-03-08T15:42:52.785Z,14.30
2019-03-08T15:45:21.936Z,14.40
2019-03-08T15:47:50.885Z,14.40
2019-03-08T15:50:20.140Z,14.50
2019-03-08T15:52:51.264Z,14.50
2019-03-08T15:55:19.883Z,14.40
2019-03-08T15:57:48.864Z,14.50
2019-03-08T16:00:19.691Z,14.40
2019-03-08T16:02:49.089Z,14.50
2019-03-08T16:05:18.376Z,14.60
2019-03-08T16:07:47.446Z,14.70
2019-03-08T16:10:19.022Z,14.70
2019-03-08T16:12:47.500Z,14.80
2019-03-08T16:15:16.868Z,14.70
2019-03-08T16:17:46.243Z,14.80
2019-03-08T16:20:15.814Z,14.80
2019-03-08T16:22:44.842Z,14.80
2019-03-08T16:25:14.868Z,14.80
2019-03-08T16:27:45.208Z,14.60
2019-03-08T16:30:26.144Z,14.50
2019-03-08T16:33:04.068Z,14.40
2019-03-08T16:35:42.568Z,14.40
2019-03-08T16:38:30.347Z,14.40
2019-03-08T16:41:13.681Z,14.20
2019-03-08T16:44:13.856Z,14.00
2019-03-08T16:47:19.878Z,13.90
2019-03-08T16:50:08.112Z,13.90
2019-03-08T16:52:53.136Z,13.60
2019-03-08T16:55:39.420Z,13.50
2019-03-08T16:58:31.373Z,13.30
2019-03-08T17:01:16.753Z,13.10
2019-03-08T17:04:23.251Z,12.90
2019-03-08T17:07:03.075Z,12.80
2019-03-08T17:09:43.668Z,12.70
2019-03-08T17:12:30.377Z,12.60
2019-03-08T17:15:12.645Z,12.50
2019-03-08T17:17:49.544Z,12.40
2019-03-08T17:20:43.460Z,12.30
2019-03-08T17:23:34.213Z,12.20
2019-03-08T17:26:21.146Z,12.10
2019-03-08T17:29:12.660Z,12.00
2019-03-08T17:31:53.021Z,11.90
2019-03-08T17:34:45.612Z,11.80
2019-03-08T17:37:49.040Z,11.80
2019-03-08T17:40:39.656Z,11.80
2019-03-08T17:43:18.681Z,11.80
2019-03-08T17:45:55.969Z,11.80
2019-03-08T17:48:42.881Z,11.90
2019-03-08T17:51:30.001Z,11.70
2019-03-08T17:54:16.260Z,11.60
2019-03-08T17:56:55.620Z,11.60
2019-03-08T17:59:46.458Z,11.50
2019-03-08T18:02:37.275Z,11.40
2019-03-08T18:05:11.987Z,11.40
2019-03-08T18:07:50.404Z,11.30
2019-03-08T18:10:38.356Z,11.30
2019-03-08T18:13:24.830Z,11.30
2019-03-08T18:16:15.940Z,11.20
2019-03-08T18:18:59.601Z,11.20
2019-03-08T18:21:56.528Z,11.20
2019-03-08T18:24:43.268Z,11.30
2019-03-08T18:29:57.604Z,11.20
2019-03-08T18:32:44.128Z,11.20
2019-03-08T18:35:21.776Z,11.10
2019-03-08T18:38:19.433Z,10.90
2019-03-08T18:41:19.437Z,10.90
2019-03-08T18:44:07.424Z,11.00
2019-03-08T18:46:49.395Z,11.00
2019-03-08T18:49:35.999Z,11.10
2019-03-08T18:52:23.474Z,11.10
2019-03-08T18:55:10.360Z,11.00
2019-03-08T18:58:02.689Z,10.80
2019-03-08T19:00:40.776Z,10.70
2019-03-08T19:03:31.188Z,10.70
2019-03-08T19:06:19.132Z,10.80
2019-03-08T19:09:08.088Z,10.70
2019-03-08T19:11:45.679Z,10.60
2019-03-08T19:14:22.461Z,10.50
2019-03-08T19:17:09.995Z,10.50
2019-03-08T19:20:01.515Z,10.50
2019-03-08T19:22:35.905Z,10.40
2019-03-08T19:25:24.140Z,10.40
2019-03-08T19:28:03.252Z,10.40
2019-03-08T19:30:49.616Z,10.40
2019-03-08T19:33:43.732Z,10.40
2019-03-08T19:36:36.011Z,10.40
2019-03-08T19:39:23.036Z,10.40
2019-03-08T19:42:23.080Z,10.50
2019-03-08T19:45:13.861Z,10.40
2019-03-08T19:47:52.000Z,10.40
2019-03-08T19:50:37.428Z,10.40
2019-03-08T19:53:15.848Z,10.40
2019-03-08T19:56:04.218Z,10.40
2019-03-08T19:59:01.040Z,10.40
2019-03-08T20:01:52.040Z,10.30
2019-03-08T20:04:36.176Z,10.40
2019-03-08T20:07:24.724Z,10.40
2019-03-08T20:10:02.560Z,10.40
2019-03-08T20:12:51.416Z,10.40
2019-03-08T20:15:39.604Z,10.30
2019-03-08T20:18:18.010Z,10.40
2019-03-08T20:21:00.405Z,10.30
2019-03-08T20:23:38.828Z,10.30
2019-03-08T20:26:18.763Z,10.30
2019-03-08T20:29:19.040Z,10.40
2019-03-08T20:32:09.694Z,10.30
2019-03-08T20:34:48.809Z,10.20
2019-03-08T20:37:28.260Z,10.20
2019-03-08T20:40:23.229Z,10.20
2019-03-08T20:43:00.495Z,10.10
2019-03-08T20:45:36.964Z,10.10
2019-03-08T20:48:06.380Z,10.10
2019-03-08T20:50:35.838Z,10.10
2019-03-08T20:53:05.412Z,10.10
2019-03-08T20:55:34.458Z,10.10
2019-03-08T20:58:03.469Z,10.10
2019-03-08T21:00:32.454Z,10.10
2019-03-08T21:03:01.448Z,10.00
2019-03-08T21:05:30.885Z,10.00
2019-03-08T21:08:00.157Z,10.00
2019-03-08T21:10:29.561Z,10.00
2019-03-08T21:12:58.564Z,9.90
2019-03-08T21:15:27.605Z,10.00
2019-03-08T21:17:56.676Z,10.00
2019-03-08T21:20:25.628Z,10.00
2019-03-08T21:22:54.612Z,10.00
2019-03-08T21:25:23.634Z,10.00
2019-03-08T21:27:52.501Z,10.00
2019-03-08T21:30:21.852Z,10.00
2019-03-08T21:32:50.876Z,10.00
2019-03-08T21:35:19.864Z,10.10
2019-03-08T21:37:48.855Z,10.10
2019-03-08T21:40:17.888Z,10.10
2019-03-08T21:42:48.802Z,10.20
2019-03-08T21:45:17.784Z,10.20
2019-03-08T21:47:47.292Z,10.30
2019-03-08T21:50:17.032Z,10.40
2019-03-08T21:52:45.969Z,10.40
2019-03-08T21:55:15.164Z,10.40
2019-03-08T21:57:44.252Z,10.40
2019-03-08T22:00:17.684Z,10.40
2019-03-08T22:02:49.644Z,10.40
2019-03-08T22:05:25.600Z,10.40
2019-03-08T22:07:54.588Z,10.40
2019-03-08T22:10:31.977Z,10.40
2019-03-08T22:13:01.083Z,10.40
2019-03-08T22:15:31.193Z,10.40
2019-03-08T22:18:00.572Z,10.40
2019-03-08T22:20:29.464Z,10.40
2019-03-08T22:22:58.289Z,10.40
2019-03-08T22:25:27.172Z,10.50
2019-03-08T22:27:56.584Z,10.50
2019-03-08T22:30:25.512Z,10.50
2019-03-08T22:32:54.693Z,10.50
2019-03-08T22:35:23.524Z,10.50
2019-03-08T22:37:52.928Z,10.60
2019-03-08T22:40:21.952Z,10.60
2019-03-08T22:42:50.980Z,10.60
2019-03-08T22:45:19.768Z,10.70
2019-03-08T22:47:48.825Z,10.70
2019-03-08T22:50:18.136Z,10.60
2019-03-08T22:52:47.159Z,10.60
2019-03-08T22:55:16.232Z,10.60
2019-03-08T22:57:45.275Z,10.60
2019-03-08T23:01:03.472Z,10.60
2019-03-08T23:03:32.577Z,10.60
2019-03-08T23:06:01.850Z,10.60
2019-03-08T23:08:31.632Z,10.60
2019-03-08T23:11:00.600Z,10.60
2019-03-08T23:13:29.687Z,10.60
2019-03-08T23:15:58.773Z,10.60
2019-03-08T23:18:27.668Z,10.60
2019-03-08T23:20:57.078Z,10.50
2019-03-08T23:23:26.358Z,10.50
2019-03-08T23:25:55.397Z,10.50
2019-03-08T23:28:49.272Z,10.50
2019-03-08T23:31:28.528Z,10.50
2019-03-08T23:33:57.428Z,10.40
2019-03-08T23:36:26.340Z,10.40
2019-03-08T23:38:55.237Z,10.40
2019-03-08T23:41:24.243Z,10.50
2019-03-08T23:43:53.147Z,10.50
2019-03-08T23:46:21.999Z,10.50
2019-03-08T23:48:51.084Z,10.40
2019-03-08T23:51:20.574Z,10.40
2019-03-08T23:53:49.569Z,10.40
2019-03-08T23:56:18.495Z,10.40
2019-03-08T23:58:47.679Z,10.40
